Pagrindinis puslapis
METAR-TAF:

METAR-TAF

Oro uostai :

Hua Hin, Tailandas

platuma: 12-35N, ilguma: 099-57E, Aukštis: 5 m

Dabartinis oras

Ataskaita buvo paskelbta 1 valandą ir 15 minutes, ne 07:00 UTC
Vėjas 13 kt iš Šiaurės/Šiaurės Rytų, svyruoja nuo Šiaurės ir Šiaurės Rytų
Temperatūra 30°C
Drėgmė 52%
Slėgis 1015 hPa
Matomumas: 8000 m
Mažai debesys ne aukštis 3000 ft

METAR: VTPH 230700Z 02013KT 350V050 8000 FEW030 30/19 Q1015 NOSIG

Laikas: 15:15 (08:15 UTC)

Prognozė

Ataskaita buvo paskelbta 3 valandos ir 15 minutes, ne 05:00 UTC
Prognozė galioja nuo 23 metu 06 UTC su 24 metu 06 UTC
Vėjas 10 kt iš Šiaurės/Šiaurės Rytų
Matomumas: 8000 m
Mažai debesys ne aukštis 3000 ft
Tapsmas
nuo 23 metu 14 UTC su 23 metu 16 UTC
Vėjas kt iš Šiaurės
Tapsmas
nuo 24 metu 02 UTC su 24 metu 04 UTC
Vėjas 8 kt iš Šiaurės/Šiaurės Rytų

TAF: VTPH 230500Z 2306/2406 03010KT 8000 FEW030 BECMG 2314/2316 00000KT BECMG 2402/2404 03008KT

Orai ataskaitas ir orų prognozės (METAR, TAF).

turimą stotys yra geltonos ir raudonos taškus žemėlapyje.

Perkelti pele per norėdami pamatyti stoties vardą.

Tada spustelėkite, norėdami matyti oro stebėjimo ir prognozės.

Norėdami pakeisti žemėlapį: spustelėkite ant žalios mygtukų su juodo kryžiaus žemyn,; žalią mygtuką su brūkšneliu, jei norite nutolinti; arba žalių rodyklių gretimoms žemėlapius.


METAR-TAF: